Time;durP1;ratioP1;P1;durP2;ratioP2;P2;SDS_P1;SDS_P2;PMS_P1;PMS_P2;Temp;Humidity;BMP_temperature;BMP_pressure;BME280_temperature;BME280_humidity;BME280_pressure;Samples;Min_cycle;Max_cycle;Signal;HPM_P1;HPM_P2
2023/09/07 00:02:48;;;;;;;17.45;9.52;;;;;;;;;;6243301;28;20103;-51
2023/09/07 00:05:49;;;;;;;17.17;9.73;;;;;;;;;;6246720;28;20065;-51
2023/09/07 00:08:49;;;;;;;16.50;9.73;;;;;;;;;;6248433;28;20049;-53
2023/09/07 00:11:50;;;;;;;17.52;9.02;;;;;;;;;;6249741;28;20052;-54
2023/09/07 00:14:51;;;;;;;17.17;9.35;;;;;;;;;;6244940;28;20079;-51
2023/09/07 00:17:52;;;;;;;19.23;9.63;;;;;;;;;;6246314;28;20044;-53
2023/09/07 00:20:53;;;;;;;15.90;9.70;;;;;;;;;;6247710;28;20045;-51
2023/09/07 00:23:55;;;;;;;18.15;9.45;;;;;;;;;;6248095;28;20037;-50
2023/09/07 00:26:55;;;;;;;15.40;9.20;;;;;;;;;;6249827;28;20037;-52
2023/09/07 00:29:56;;;;;;;17.60;9.77;;;;;;;;;;6248575;28;20487;-50
2023/09/07 00:32:56;;;;;;;16.75;9.63;;;;;;;;;;6244365;28;20102;-50
2023/09/07 00:35:57;;;;;;;16.38;8.70;;;;;;;;;;6246902;28;20152;-51
2023/09/07 00:38:57;;;;;;;15.50;9.65;;;;;;;;;;6244805;28;20041;-51
2023/09/07 00:41:58;;;;;;;18.95;9.88;;;;;;;;;;6246729;28;20045;-54
2023/09/07 00:44:58;;;;;;;18.33;9.60;;;;;;;;;;6244987;28;20041;-51
2023/09/07 00:47:59;;;;;;;19.20;9.98;;;;;;;;;;6247248;28;20041;-55
2023/09/07 00:51:00;;;;;;;20.33;10.73;;;;;;;;;;6243143;28;20045;-52
2023/09/07 00:54:00;;;;;;;21.05;11.05;;;;;;;;;;6243811;28;20106;-52
2023/09/07 00:57:02;;;;;;;20.63;9.88;;;;;;;;;;6247925;28;20053;-54
2023/09/07 01:00:05;;;;;;;18.50;10.18;;;;;;;;;;6244354;28;20087;-50
2023/09/07 01:03:08;;;;;;;17.40;10.07;;;;;;;;;;6249265;28;20791;-55
2023/09/07 01:06:52;;;;;;;19.40;10.75;;;;;;;;;;6252531;28;20041;-51
2023/09/07 01:09:56;;;;;;;16.83;9.95;;;;;;;;;;6226994;28;20057;-51
2023/09/07 01:12:57;;;;;;;17.55;10.07;;;;;;;;;;6249792;28;20041;-53
2023/09/07 01:15:58;;;;;;;18.25;10.15;;;;;;;;;;6249871;28;20437;-54
2023/09/07 01:18:59;;;;;;;19.88;10.95;;;;;;;;;;6263815;28;20044;-51
2023/09/07 01:22:00;;;;;;;18.60;10.45;;;;;;;;;;6251046;28;20082;-51
2023/09/07 01:25:02;;;;;;;16.83;10.48;;;;;;;;;;6250242;28;20385;-54
2023/09/07 01:28:03;;;;;;;16.00;10.23;;;;;;;;;;6252019;28;20045;-54
2023/09/07 01:31:05;;;;;;;18.38;10.68;;;;;;;;;;6249334;28;20411;-53
2023/09/07 01:34:06;;;;;;;;;;;;;;;;;;6251669;28;20045;-50
2023/09/07 01:37:07;;;;;;;19.75;10.25;;;;;;;;;;6248417;28;19981;-54
2023/09/07 01:40:08;;;;;;;18.30;9.70;;;;;;;;;;6249982;28;20045;-51
2023/09/07 01:43:09;;;;;;;19.05;10.27;;;;;;;;;;6250865;28;20037;-52
2023/09/07 01:46:09;;;;;;;18.23;9.88;;;;;;;;;;6248363;28;20056;-52
2023/09/07 01:49:10;;;;;;;17.77;10.43;;;;;;;;;;6247034;28;20412;-52
2023/09/07 01:52:11;;;;;;;18.95;10.45;;;;;;;;;;6246774;28;20697;-53
2023/09/07 01:55:11;;;;;;;20.05;10.35;;;;;;;;;;6256969;28;20103;-53
2023/09/07 01:58:12;;;;;;;20.00;10.18;;;;;;;;;;6249674;28;20049;-52
2023/09/07 02:01:30;;;;;;;18.60;9.73;;;;;;;;;;6249428;28;20057;-52
2023/09/07 02:04:30;;;;;;;19.42;10.23;;;;;;;;;;6248803;28;20045;-50
2023/09/07 02:07:32;;;;;;;21.95;11.65;;;;;;;;;;6241389;28;20059;-51
2023/09/07 02:10:33;;;;;;;20.85;11.18;;;;;;;;;;6245153;28;20566;-54
2023/09/07 02:13:34;;;;;;;22.17;11.07;;;;;;;;;;6247270;28;20051;-51
2023/09/07 02:16:35;;;;;;;20.50;10.85;;;;;;;;;;6243751;28;20045;-55
2023/09/07 02:19:35;;;;;;;21.42;11.63;;;;;;;;;;6242343;28;20136;-54
2023/09/07 02:22:36;;;;;;;23.55;12.38;;;;;;;;;;6248274;28;20046;-51
2023/09/07 02:25:37;;;;;;;23.42;10.98;;;;;;;;;;6250108;28;20047;-51
2023/09/07 02:28:37;;;;;;;19.00;11.02;;;;;;;;;;6249464;28;20045;-52
2023/09/07 02:31:39;;;;;;;21.30;10.48;;;;;;;;;;6247594;28;20393;-53
2023/09/07 02:34:40;;;;;;;19.05;10.73;;;;;;;;;;6246359;28;20049;-51
2023/09/07 02:37:40;;;;;;;23.50;11.68;;;;;;;;;;6245020;28;20167;-50
2023/09/07 02:40:42;;;;;;;21.35;10.70;;;;;;;;;;6248482;28;20052;-53
2023/09/07 02:43:43;;;;;;;21.05;10.45;;;;;;;;;;6248530;28;20083;-50
2023/09/07 02:46:43;;;;;;;19.92;11.30;;;;;;;;;;6246667;28;20048;-51
2023/09/07 02:49:44;;;;;;;22.92;10.38;;;;;;;;;;6249924;28;20049;-51
2023/09/07 02:52:44;;;;;;;19.65;10.73;;;;;;;;;;6244830;28;20066;-54
2023/09/07 02:55:45;;;;;;;20.38;10.85;;;;;;;;;;6246801;28;20448;-51
2023/09/07 02:58:46;;;;;;;21.17;11.60;;;;;;;;;;6246717;28;20045;-52
2023/09/07 03:01:46;;;;;;;20.00;10.52;;;;;;;;;;6249714;28;20053;-54
2023/09/07 03:04:47;;;;;;;22.75;11.38;;;;;;;;;;6259855;28;20044;-52
2023/09/07 03:07:49;;;;;;;20.55;11.27;;;;;;;;;;6257334;28;20041;-52
2023/09/07 03:10:50;;;;;;;;;;;;;;;;;;6257721;28;20080;-52
2023/09/07 03:13:52;;;;;;;23.48;11.52;;;;;;;;;;6257603;28;19956;-50
2023/09/07 03:16:54;;;;;;;21.95;11.48;;;;;;;;;;6256915;28;20049;-51
2023/09/07 03:19:55;;;;;;;19.27;11.05;;;;;;;;;;6258680;28;20044;-50
2023/09/07 03:22:56;;;;;;;24.05;11.43;;;;;;;;;;6258388;28;20899;-52
2023/09/07 03:25:58;;;;;;;21.25;10.98;;;;;;;;;;6253004;28;20047;-50
2023/09/07 03:28:58;;;;;;;25.25;11.18;;;;;;;;;;6250713;28;20049;-51
2023/09/07 03:32:00;;;;;;;21.60;11.60;;;;;;;;;;6259196;28;20054;-53
2023/09/07 03:35:00;;;;;;;20.57;11.30;;;;;;;;;;6257166;28;20405;-52
2023/09/07 03:38:01;;;;;;;18.85;10.68;;;;;;;;;;6254687;28;20371;-51
2023/09/07 03:41:02;;;;;;;19.15;10.27;;;;;;;;;;6256201;28;20389;-52
2023/09/07 03:44:02;;;;;;;19.80;10.57;;;;;;;;;;6255324;28;20484;-51
2023/09/07 03:47:03;;;;;;;22.92;10.70;;;;;;;;;;6255338;28;21181;-53
2023/09/07 03:50:05;;;;;;;19.15;10.57;;;;;;;;;;6256286;28;20051;-51
2023/09/07 03:53:06;;;;;;;19.65;10.65;;;;;;;;;;6253384;28;20128;-50
2023/09/07 03:56:06;;;;;;;18.88;9.88;;;;;;;;;;6258008;28;20048;-53
2023/09/07 03:59:07;;;;;;;21.73;11.48;;;;;;;;;;6256706;28;20676;-53
2023/09/07 04:02:08;;;;;;;22.67;10.30;;;;;;;;;;6267640;28;20479;-51
2023/09/07 04:05:10;;;;;;;21.88;10.98;;;;;;;;;;6254725;28;20052;-51
2023/09/07 04:08:11;;;;;;;20.90;11.23;;;;;;;;;;6257594;28;20404;-52
2023/09/07 04:11:11;;;;;;;20.25;11.25;;;;;;;;;;6256903;28;20060;-51
2023/09/07 04:14:12;;;;;;;19.98;11.05;;;;;;;;;;6257714;28;20451;-51
2023/09/07 04:17:13;;;;;;;21.52;11.63;;;;;;;;;;6258166;28;20053;-60
2023/09/07 04:20:14;;;;;;;22.23;10.98;;;;;;;;;;6256294;28;20123;-50
2023/09/07 04:23:14;;;;;;;21.95;11.27;;;;;;;;;;6254878;28;20496;-60
2023/09/07 04:26:15;;;;;;;19.70;11.18;;;;;;;;;;6255556;28;20510;-62
2023/09/07 04:29:16;;;;;;;19.17;11.77;;;;;;;;;;6257872;28;20045;-54
2023/09/07 04:32:16;;;;;;;22.30;11.48;;;;;;;;;;6254868;28;20051;-56
2023/09/07 04:35:17;;;;;;;23.90;12.38;;;;;;;;;;6261088;28;20052;-54
2023/09/07 04:38:18;;;;;;;21.23;10.77;;;;;;;;;;6257770;28;20088;-57
2023/09/07 04:41:18;;;;;;;20.95;11.05;;;;;;;;;;6258214;28;20060;-50
2023/09/07 04:44:20;;;;;;;19.73;11.07;;;;;;;;;;6254711;28;20048;-56
2023/09/07 04:47:20;;;;;;;21.50;11.50;;;;;;;;;;6257552;28;20053;-57
2023/09/07 04:50:21;;;;;;;22.73;11.75;;;;;;;;;;6255282;28;20057;-60
2023/09/07 04:53:21;;;;;;;20.63;10.68;;;;;;;;;;6256126;28;20387;-60
2023/09/07 04:56:22;;;;;;;20.38;10.55;;;;;;;;;;6252400;28;20046;-57
2023/09/07 04:59:23;;;;;;;23.13;10.98;;;;;;;;;;6257025;28;20136;-53
2023/09/07 05:02:23;;;;;;;20.98;11.73;;;;;;;;;;6246025;28;20491;-55
2023/09/07 05:05:24;;;;;;;19.85;11.45;;;;;;;;;;6257538;28;20087;-57
2023/09/07 05:08:25;;;;;;;23.85;10.93;;;;;;;;;;6250820;28;20060;-55
2023/09/07 05:11:25;;;;;;;21.77;11.80;;;;;;;;;;6257618;28;20048;-57
2023/09/07 05:14:26;;;;;;;22.50;11.70;;;;;;;;;;6260747;28;20152;-53
2023/09/07 05:17:26;;;;;;;23.98;12.32;;;;;;;;;;6253878;28;20052;-58
2023/09/07 05:20:30;;;;;;;23.92;12.05;;;;;;;;;;6254714;28;20709;-57
2023/09/07 05:23:30;;;;;;;23.83;11.68;;;;;;;;;;6258371;28;20527;-55
2023/09/07 05:26:31;;;;;;;41.45;11.80;;;;;;;;;;6254150;28;20037;-52
2023/09/07 05:29:31;;;;;;;40.08;14.23;;;;;;;;;;6260074;28;20048;-53
2023/09/07 05:32:33;;;;;;;38.50;13.07;;;;;;;;;;6264651;28;20045;-53
2023/09/07 05:35:33;;;;;;;45.38;13.32;;;;;;;;;;6248383;28;20132;-54
2023/09/07 05:38:34;;;;;;;30.20;11.95;;;;;;;;;;6249798;28;20097;-51
2023/09/07 05:41:35;;;;;;;36.88;11.48;;;;;;;;;;6262567;28;20258;-51
2023/09/07 05:44:36;;;;;;;32.03;13.40;;;;;;;;;;6242624;28;20056;-55
2023/09/07 05:47:36;;;;;;;31.48;12.38;;;;;;;;;;6246438;28;20458;-55
2023/09/07 05:50:38;;;;;;;26.17;12.35;;;;;;;;;;6255204;28;20092;-55
2023/09/07 05:53:39;;;;;;;29.67;11.73;;;;;;;;;;6242849;28;20521;-53
2023/09/07 05:56:39;;;;;;;28.48;12.50;;;;;;;;;;6245918;28;20071;-54
2023/09/07 05:59:40;;;;;;;32.03;13.10;;;;;;;;;;6246121;28;20041;-56
2023/09/07 06:02:41;;;;;;;30.90;13.07;;;;;;;;;;6248615;28;20524;-53
2023/09/07 06:05:41;;;;;;;34.05;13.18;;;;;;;;;;6244846;28;20288;-56
2023/09/07 06:08:42;;;;;;;28.55;13.05;;;;;;;;;;6250621;28;20512;-59
2023/09/07 06:11:42;;;;;;;27.25;13.60;;;;;;;;;;6259378;28;20508;-52
2023/09/07 06:14:45;;;;;;;22.73;12.38;;;;;;;;;;6249332;28;20044;-52
2023/09/07 06:17:45;;;;;;;24.55;11.70;;;;;;;;;;6249760;28;20049;-53
2023/09/07 06:20:46;;;;;;;24.60;12.02;;;;;;;;;;6264211;28;20086;-56
2023/09/07 06:23:47;;;;;;;24.00;12.20;;;;;;;;;;6253449;28;20406;-57
2023/09/07 06:26:48;;;;;;;22.02;11.00;;;;;;;;;;6248163;28;20042;-59
2023/09/07 06:29:49;;;;;;;23.77;11.43;;;;;;;;;;6244616;28;20377;-58
2023/09/07 06:32:51;;;;;;;19.48;9.60;;;;;;;;;;6245598;28;20048;-55
2023/09/07 06:35:51;;;;;;;21.30;9.88;;;;;;;;;;6247341;28;20037;-55
2023/09/07 06:38:52;;;;;;;19.67;9.57;;;;;;;;;;6251275;28;20619;-57
2023/09/07 06:41:52;;;;;;;20.40;10.15;;;;;;;;;;6243747;28;20045;-58
2023/09/07 06:44:53;;;;;;;20.35;9.63;;;;;;;;;;6249212;28;20059;-55
2023/09/07 06:47:54;;;;;;;17.60;8.35;;;;;;;;;;6249788;28;20096;-54
2023/09/07 06:50:54;;;;;;;19.97;9.53;;;;;;;;;;6248467;28;20041;-55
2023/09/07 06:53:55;;;;;;;17.27;8.85;;;;;;;;;;6248869;28;20412;-57
2023/09/07 06:56:56;;;;;;;16.83;8.55;;;;;;;;;;6245742;28;20496;-58
2023/09/07 06:59:56;;;;;;;16.48;8.38;;;;;;;;;;6261137;28;20049;-51
2023/09/07 07:02:58;;;;;;;20.23;9.50;;;;;;;;;;6245713;28;20041;-55
2023/09/07 07:05:58;;;;;;;16.92;8.15;;;;;;;;;;6245037;28;20519;-56
2023/09/07 07:08:59;;;;;;;19.40;8.10;;;;;;;;;;6246369;28;20057;-54
2023/09/07 07:12:01;;;;;;;19.70;8.95;;;;;;;;;;6248172;28;20038;-53
2023/09/07 07:15:02;;;;;;;21.30;8.60;;;;;;;;;;6248126;28;20041;-55
2023/09/07 07:18:08;;;;;;;18.83;9.30;;;;;;;;;;6244966;28;20400;-56
2023/09/07 07:21:09;;;;;;;16.13;8.25;;;;;;;;;;6244293;28;20041;-55
2023/09/07 07:24:09;;;;;;;16.03;8.97;;;;;;;;;;6243649;28;20481;-56
2023/09/07 07:27:10;;;;;;;25.20;9.53;;;;;;;;;;6245304;28;20048;-56
2023/09/07 07:30:11;;;;;;;16.60;8.60;;;;;;;;;;6242953;28;20052;-55
2023/09/07 07:33:12;;;;;;;16.33;8.67;;;;;;;;;;6244830;28;20041;-55
2023/09/07 07:36:12;;;;;;;18.33;8.87;;;;;;;;;;6242163;28;20055;-57
2023/09/07 07:39:13;;;;;;;17.53;8.37;;;;;;;;;;6243516;28;20476;-53
2023/09/07 07:42:13;;;;;;;17.63;9.03;;;;;;;;;;6242776;28;20045;-56
2023/09/07 07:45:14;;;;;;;17.33;8.50;;;;;;;;;;6242794;28;20448;-55
2023/09/07 07:48:15;;;;;;;19.13;7.93;;;;;;;;;;6244527;28;20111;-57
2023/09/07 07:51:16;;;;;;;13.13;7.67;;;;;;;;;;6242444;28;20046;-56
2023/09/07 07:54:16;;;;;;;15.37;8.03;;;;;;;;;;6243854;28;20053;-60
2023/09/07 07:57:17;;;;;;;14.77;7.77;;;;;;;;;;6244478;28;21748;-54
2023/09/07 08:00:18;;;;;;;13.33;7.73;;;;;;;;;;6244996;28;20041;-55
2023/09/07 08:03:19;;;;;;;12.02;7.35;;;;;;;;;;6241837;28;20045;-58
2023/09/07 08:06:19;;;;;;;16.00;7.73;;;;;;;;;;6246185;28;20042;-59
2023/09/07 08:09:21;;;;;;;14.00;7.33;;;;;;;;;;6246361;28;20416;-53
2023/09/07 08:12:23;;;;;;;12.35;7.30;;;;;;;;;;6247074;28;20103;-57
2023/09/07 08:15:24;;;;;;;13.47;7.33;;;;;;;;;;6243681;28;20152;-54
2023/09/07 08:18:25;;;;;;;12.60;6.88;;;;;;;;;;6248696;28;20469;-57
2023/09/07 08:21:26;;;;;;;11.73;7.27;;;;;;;;;;6257427;28;20137;-56
2023/09/07 08:24:26;;;;;;;11.73;7.47;;;;;;;;;;6245289;28;20413;-55
2023/09/07 08:27:27;;;;;;;11.73;7.43;;;;;;;;;;6246533;28;20041;-58
2023/09/07 08:30:27;;;;;;;12.43;6.90;;;;;;;;;;6244939;28;20044;-59
2023/09/07 08:33:28;;;;;;;12.10;7.03;;;;;;;;;;6243035;28;20056;-55
2023/09/07 08:36:33;;;;;;;12.07;6.53;;;;;;;;;;6242303;28;20056;-55
2023/09/07 08:39:35;;;;;;;10.75;6.57;;;;;;;;;;6246386;28;20510;-56
2023/09/07 08:42:36;;;;;;;12.57;6.80;;;;;;;;;;6244875;28;20054;-57
2023/09/07 08:45:44;;;;;;;12.10;6.72;;;;;;;;;;6243849;28;20467;-57
2023/09/07 08:48:46;;;;;;;10.98;6.88;;;;;;;;;;6243139;28;20072;-58
2023/09/07 08:51:48;;;;;;;11.45;6.53;;;;;;;;;;6244657;28;20056;-55
2023/09/07 08:54:48;;;;;;;13.90;6.80;;;;;;;;;;6245582;28;20053;-56
2023/09/07 08:57:50;;;;;;;12.40;6.97;;;;;;;;;;6246737;28;20051;-56
2023/09/07 09:00:51;;;;;;;10.73;6.75;;;;;;;;;;6244023;28;20164;-59
2023/09/07 09:03:52;;;;;;;;;;;;;;;;;;6245347;28;20466;-58
2023/09/07 09:06:53;;;;;;;11.55;7.15;;;;;;;;;;6242405;28;19947;-58
2023/09/07 09:10:05;;;;;;;13.00;6.70;;;;;;;;;;6245941;28;20753;-57
2023/09/07 09:13:05;;;;;;;14.73;6.72;;;;;;;;;;6244401;28;20115;-57
2023/09/07 09:16:06;;;;;;;11.53;6.63;;;;;;;;;;6250504;28;20044;-54
2023/09/07 09:19:07;;;;;;;11.20;6.53;;;;;;;;;;6249176;28;20050;-52
2023/09/07 09:22:08;;;;;;;12.40;6.50;;;;;;;;;;6261360;28;20090;-55
2023/09/07 09:25:09;;;;;;;13.17;6.70;;;;;;;;;;6269383;28;20488;-56
2023/09/07 09:28:13;;;;;;;11.00;6.40;;;;;;;;;;6269359;28;20040;-55
2023/09/07 09:31:14;;;;;;;13.52;6.32;;;;;;;;;;6250754;28;20545;-53
2023/09/07 09:34:15;;;;;;;12.27;6.75;;;;;;;;;;6246444;28;20500;-55
2023/09/07 09:37:16;;;;;;;11.23;6.80;;;;;;;;;;6243959;28;20065;-58
2023/09/07 09:40:18;;;;;;;14.90;6.72;;;;;;;;;;6247652;28;20564;-54
2023/09/07 09:43:21;;;;;;;10.50;6.75;;;;;;;;;;6249896;28;20299;-56
2023/09/07 09:46:24;;;;;;;12.57;6.90;;;;;;;;;;6244808;28;20111;-55
2023/09/07 09:49:26;;;;;;;12.77;6.60;;;;;;;;;;6246141;28;20403;-56
2023/09/07 09:52:27;;;;;;;13.57;6.95;;;;;;;;;;6243927;28;20132;-55
2023/09/07 09:55:28;;;;;;;11.70;6.67;;;;;;;;;;6255409;28;20059;-58
2023/09/07 09:58:29;;;;;;;10.07;6.20;;;;;;;;;;6246932;28;20511;-58
2023/09/07 10:01:31;;;;;;;13.67;6.07;;;;;;;;;;6246038;28;20100;-57
2023/09/07 10:04:33;;;;;;;12.40;6.30;;;;;;;;;;6248409;28;20534;-57
2023/09/07 10:07:44;;;;;;;10.60;6.80;;;;;;;;;;6248844;28;20043;-55
2023/09/07 10:10:55;;;;;;;12.68;6.75;;;;;;;;;;6248360;28;20060;-57
2023/09/07 10:14:00;;;;;;;10.95;6.43;;;;;;;;;;6246673;28;20045;-55
2023/09/07 10:17:04;;;;;;;15.38;6.63;;;;;;;;;;6244258;28;20401;-57
2023/09/07 10:20:08;;;;;;;11.60;6.85;;;;;;;;;;6251733;28;20431;-55
2023/09/07 10:23:09;;;;;;;11.52;7.20;;;;;;;;;;6252951;28;20059;-56
2023/09/07 10:26:11;;;;;;;13.90;7.15;;;;;;;;;;6247607;28;20428;-54
2023/09/07 10:29:12;;;;;;;24.45;8.55;;;;;;;;;;6246794;28;20084;-56
2023/09/07 10:32:14;;;;;;;13.90;7.10;;;;;;;;;;6247197;28;20347;-55
2023/09/07 10:35:16;;;;;;;13.20;6.60;;;;;;;;;;6244624;28;20052;-58
2023/09/07 10:38:17;;;;;;;12.13;6.78;;;;;;;;;;6245384;28;20409;-55
2023/09/07 10:41:17;;;;;;;14.37;7.40;;;;;;;;;;6246246;28;20050;-56
2023/09/07 10:44:25;;;;;;;11.60;6.83;;;;;;;;;;6250684;28;20052;-59
2023/09/07 10:47:26;;;;;;;12.88;6.90;;;;;;;;;;6244701;28;20519;-56
2023/09/07 10:50:27;;;;;;;11.57;6.67;;;;;;;;;;6248751;28;20044;-58
2023/09/07 10:53:29;;;;;;;10.50;7.00;;;;;;;;;;6245195;28;20167;-53
2023/09/07 10:56:30;;;;;;;12.43;7.32;;;;;;;;;;6251465;28;20489;-55
2023/09/07 10:59:30;;;;;;;16.85;8.43;;;;;;;;;;6247577;28;20045;-56
2023/09/07 11:02:31;;;;;;;10.03;6.57;;;;;;;;;;6244455;28;20277;-54
2023/09/07 11:05:32;;;;;;;10.23;6.67;;;;;;;;;;6244439;28;20160;-55
2023/09/07 11:08:33;;;;;;;10.90;7.10;;;;;;;;;;6247920;28;20049;-56
2023/09/07 11:11:35;;;;;;;9.70;6.38;;;;;;;;;;6242952;28;20057;-56
2023/09/07 11:14:38;;;;;;;12.23;6.68;;;;;;;;;;6244111;28;20045;-54
2023/09/07 11:17:42;;;;;;;16.00;7.63;;;;;;;;;;6244122;28;20060;-56
2023/09/07 11:20:43;;;;;;;11.20;7.30;;;;;;;;;;6245922;28;20511;-56
2023/09/07 11:23:44;;;;;;;12.67;7.30;;;;;;;;;;6246086;28;20180;-59
2023/09/07 11:26:47;;;;;;;10.40;6.43;;;;;;;;;;6249239;28;20052;-55
2023/09/07 11:29:52;;;;;;;13.77;6.78;;;;;;;;;;6243545;28;20053;-54
2023/09/07 11:33:01;;;;;;;11.30;6.80;;;;;;;;;;6246026;28;20575;-56
2023/09/07 11:36:02;;;;;;;9.32;6.50;;;;;;;;;;6245396;28;20516;-55
2023/09/07 11:39:11;;;;;;;;;;;;;;;;;;6242635;28;20398;-56
2023/09/07 11:42:12;;;;;;;12.40;6.75;;;;;;;;;;6241988;28;20202;-54
2023/09/07 11:45:13;;;;;;;13.83;7.37;;;;;;;;;;6243577;28;20476;-55
2023/09/07 11:48:14;;;;;;;12.65;7.28;;;;;;;;;;6243661;28;20057;-55
2023/09/07 11:51:15;;;;;;;13.85;7.43;;;;;;;;;;6243277;28;20052;-57
2023/09/07 11:54:16;;;;;;;13.67;7.17;;;;;;;;;;6245079;28;20057;-56
2023/09/07 11:57:16;;;;;;;12.80;7.53;;;;;;;;;;6242742;28;20057;-55
2023/09/07 12:00:17;;;;;;;13.00;7.43;;;;;;;;;;6243194;28;20099;-56
2023/09/07 12:03:18;;;;;;;12.60;7.78;;;;;;;;;;6243368;28;20111;-54
2023/09/07 12:06:19;;;;;;;10.83;7.20;;;;;;;;;;6243891;28;20542;-55
2023/09/07 12:09:19;;;;;;;14.10;8.10;;;;;;;;;;6246397;28;20046;-57
2023/09/07 12:12:20;;;;;;;11.10;7.43;;;;;;;;;;6245245;28;20041;-56
2023/09/07 12:15:20;;;;;;;13.70;7.80;;;;;;;;;;6245796;28;20529;-54
2023/09/07 12:18:23;;;;;;;11.18;6.78;;;;;;;;;;6244786;28;20063;-56
2023/09/07 12:21:24;;;;;;;11.38;6.95;;;;;;;;;;6240221;28;20068;-58
2023/09/07 12:24:24;;;;;;;14.63;7.33;;;;;;;;;;6243440;28;20037;-57
2023/09/07 12:27:25;;;;;;;10.37;6.23;;;;;;;;;;6242679;28;20453;-60
2023/09/07 12:30:26;;;;;;;12.37;7.00;;;;;;;;;;6242348;28;20422;-58
2023/09/07 12:33:29;;;;;;;12.15;6.95;;;;;;;;;;6239865;28;20384;-56
2023/09/07 12:36:29;;;;;;;12.93;6.80;;;;;;;;;;6242928;28;20049;-56
2023/09/07 12:39:31;;;;;;;9.17;6.50;;;;;;;;;;6242379;28;20046;-56
2023/09/07 12:42:32;;;;;;;11.27;6.32;;;;;;;;;;6241628;28;20056;-53
2023/09/07 12:45:32;;;;;;;10.53;7.33;;;;;;;;;;6240709;28;20041;-56
2023/09/07 12:48:33;;;;;;;12.93;6.87;;;;;;;;;;6241069;28;20148;-55
2023/09/07 12:51:33;;;;;;;13.90;6.90;;;;;;;;;;6246306;28;20049;-56
2023/09/07 12:54:36;;;;;;;11.37;6.60;;;;;;;;;;6242739;28;20570;-55
2023/09/07 12:57:36;;;;;;;15.60;6.80;;;;;;;;;;6247492;28;20051;-58
2023/09/07 13:00:37;;;;;;;9.63;5.97;;;;;;;;;;6252359;28;20053;-56
2023/09/07 13:03:38;;;;;;;14.80;6.80;;;;;;;;;;6250392;28;20076;-56
2023/09/07 13:06:39;;;;;;;13.30;6.57;;;;;;;;;;6252172;28;20073;-55
2023/09/07 13:09:39;;;;;;;10.77;7.15;;;;;;;;;;6255983;28;20064;-56
2023/09/07 13:12:41;;;;;;;11.05;7.40;;;;;;;;;;6250286;28;20063;-58
2023/09/07 13:15:41;;;;;;;10.05;6.40;;;;;;;;;;6251857;28;20367;-61
2023/09/07 13:18:42;;;;;;;12.15;6.97;;;;;;;;;;6254642;28;20503;-59
2023/09/07 13:21:43;;;;;;;11.03;6.57;;;;;;;;;;6254180;28;20041;-55
2023/09/07 13:24:43;;;;;;;11.23;6.70;;;;;;;;;;6249046;28;20593;-53
2023/09/07 13:27:44;;;;;;;9.17;5.97;;;;;;;;;;6249627;28;20052;-55
2023/09/07 13:30:44;;;;;;;11.07;6.70;;;;;;;;;;6248786;28;20052;-55
2023/09/07 13:33:45;;;;;;;11.40;6.37;;;;;;;;;;6251071;28;20060;-56
2023/09/07 13:36:46;;;;;;;9.30;5.93;;;;;;;;;;6259349;28;20048;-56
2023/09/07 13:39:46;;;;;;;16.70;6.77;;;;;;;;;;6258111;28;20114;-56
2023/09/07 13:42:50;;;;;;;10.40;6.70;;;;;;;;;;6260762;28;20072;-55
2023/09/07 13:45:50;;;;;;;15.35;6.80;;;;;;;;;;6255595;28;20348;-56
2023/09/07 13:48:51;;;;;;;10.43;6.73;;;;;;;;;;6255587;28;20045;-57
2023/09/07 13:51:51;;;;;;;10.93;6.27;;;;;;;;;;6257429;28;20044;-53
2023/09/07 13:54:52;;;;;;;12.23;6.23;;;;;;;;;;6260827;28;20079;-54
2023/09/07 13:57:53;;;;;;;8.57;5.93;;;;;;;;;;6259962;28;20558;-58
2023/09/07 14:00:53;;;;;;;10.27;7.00;;;;;;;;;;6252679;28;20056;-57
2023/09/07 14:03:54;;;;;;;12.67;6.30;;;;;;;;;;6251225;28;20072;-56
2023/09/07 14:06:55;;;;;;;10.55;6.68;;;;;;;;;;6253374;28;20041;-53
2023/09/07 14:09:55;;;;;;;12.43;7.03;;;;;;;;;;6245813;28;20123;-55
2023/09/07 14:12:56;;;;;;;10.53;6.67;;;;;;;;;;6248743;28;20575;-57
2023/09/07 14:15:57;;;;;;;10.50;6.60;;;;;;;;;;6250064;28;20134;-57
2023/09/07 14:18:57;;;;;;;11.30;6.50;;;;;;;;;;6247271;28;20076;-56
2023/09/07 14:21:58;;;;;;;10.83;6.87;;;;;;;;;;6251580;28;20045;-56
2023/09/07 14:24:59;;;;;;;11.05;6.28;;;;;;;;;;6248873;28;20071;-54
2023/09/07 14:28:03;;;;;;;11.03;6.87;;;;;;;;;;6246349;28;20688;-58
2023/09/07 14:31:06;;;;;;;16.80;9.43;;;;;;;;;;6248778;28;20045;-54
2023/09/07 14:34:06;;;;;;;11.10;6.72;;;;;;;;;;6247885;28;20055;-55
2023/09/07 14:37:07;;;;;;;11.33;7.27;;;;;;;;;;6247857;28;20140;-54
2023/09/07 14:40:08;;;;;;;12.30;7.57;;;;;;;;;;6247391;28;20048;-56
2023/09/07 14:43:10;;;;;;;15.05;10.48;;;;;;;;;;6248268;28;20045;-53
2023/09/07 14:46:11;;;;;;;11.07;7.07;;;;;;;;;;6245466;28;20132;-55
2023/09/07 14:49:12;;;;;;;10.55;7.20;;;;;;;;;;6245802;28;20295;-57
2023/09/07 14:52:12;;;;;;;14.50;7.57;;;;;;;;;;6248072;28;20076;-56
2023/09/07 14:55:16;;;;;;;14.07;7.00;;;;;;;;;;6247965;28;20514;-56
2023/09/07 14:58:17;;;;;;;11.38;7.05;;;;;;;;;;6247236;28;20059;-59
2023/09/07 15:01:18;;;;;;;15.07;9.40;;;;;;;;;;6251156;28;20057;-61
2023/09/07 15:04:18;;;;;;;15.07;8.37;;;;;;;;;;6250747;28;20494;-59
2023/09/07 15:07:19;;;;;;;24.83;15.40;;;;;;;;;;6250952;28;20275;-58
2023/09/07 15:10:20;;;;;;;16.80;9.70;;;;;;;;;;6246063;28;20492;-56
2023/09/07 15:13:21;;;;;;;15.15;10.02;;;;;;;;;;6248273;28;20060;-59
2023/09/07 15:16:23;;;;;;;17.97;9.53;;;;;;;;;;6255682;28;20057;-56
2023/09/07 15:19:24;;;;;;;20.45;12.13;;;;;;;;;;6253301;28;20586;-57
2023/09/07 15:22:25;;;;;;;15.90;9.43;;;;;;;;;;6257805;28;20060;-54
2023/09/07 15:25:26;;;;;;;11.77;7.80;;;;;;;;;;6257665;28;20083;-60
2023/09/07 15:28:26;;;;;;;14.17;8.53;;;;;;;;;;6253759;28;20041;-57
2023/09/07 15:31:27;;;;;;;16.35;10.13;;;;;;;;;;6257243;28;20160;-55
2023/09/07 15:34:27;;;;;;;17.87;10.10;;;;;;;;;;6256930;28;20144;-56
2023/09/07 15:37:28;;;;;;;14.30;9.63;;;;;;;;;;6255242;28;20553;-53
2023/09/07 15:40:29;;;;;;;16.57;10.10;;;;;;;;;;6251780;28;20305;-57
2023/09/07 15:43:31;;;;;;;;;;;;;;;;;;6257585;28;20496;-60
2023/09/07 15:46:32;;;;;;;14.00;8.30;;;;;;;;;;6257256;28;20122;-60
2023/09/07 15:49:32;;;;;;;15.17;9.40;;;;;;;;;;6254791;28;20128;-58
2023/09/07 15:52:43;;;;;;;14.17;9.60;;;;;;;;;;6256380;28;20677;-59
2023/09/07 15:55:44;;;;;;;15.60;9.60;;;;;;;;;;6257163;28;20439;-56
2023/09/07 15:58:45;;;;;;;17.63;10.23;;;;;;;;;;6253690;28;20041;-54
2023/09/07 16:01:45;;;;;;;16.30;9.30;;;;;;;;;;6255874;28;20127;-56
2023/09/07 16:04:46;;;;;;;15.57;8.87;;;;;;;;;;6255574;28;20103;-59
2023/09/07 16:07:48;;;;;;;16.07;9.63;;;;;;;;;;6254302;28;20869;-68
2023/09/07 16:10:49;;;;;;;14.20;9.27;;;;;;;;;;6255976;28;20412;-59
2023/09/07 16:13:49;;;;;;;15.63;9.90;;;;;;;;;;6255625;28;20485;-57
2023/09/07 16:16:51;;;;;;;16.10;10.80;;;;;;;;;;6255716;28;20134;-58
2023/09/07 16:19:52;;;;;;;18.08;10.73;;;;;;;;;;6252633;28;20522;-59
2023/09/07 16:22:52;;;;;;;18.67;10.60;;;;;;;;;;6255991;28;20048;-58
2023/09/07 16:25:53;;;;;;;18.23;10.53;;;;;;;;;;6256593;28;20091;-55
2023/09/07 16:28:54;;;;;;;18.43;11.13;;;;;;;;;;6253014;28;20691;-59
2023/09/07 16:31:54;;;;;;;17.98;10.73;;;;;;;;;;6254279;28;20468;-58
2023/09/07 16:34:55;;;;;;;19.43;10.57;;;;;;;;;;6255229;28;20052;-57
2023/09/07 16:37:56;;;;;;;15.02;10.55;;;;;;;;;;6268916;28;20052;-57
2023/09/07 16:40:56;;;;;;;16.50;10.00;;;;;;;;;;6253090;28;20590;-55
2023/09/07 16:43:57;;;;;;;17.60;9.63;;;;;;;;;;6251310;28;20107;-58
2023/09/07 16:46:57;;;;;;;17.47;10.57;;;;;;;;;;6254398;28;20503;-58
2023/09/07 16:49:58;;;;;;;17.37;9.67;;;;;;;;;;6252897;28;20516;-57
2023/09/07 16:52:59;;;;;;;14.43;9.17;;;;;;;;;;6255940;28;20294;-57
2023/09/07 16:55:59;;;;;;;16.20;10.03;;;;;;;;;;6256226;28;20135;-57
2023/09/07 16:59:00;;;;;;;18.97;10.03;;;;;;;;;;6246344;28;20119;-59
2023/09/07 17:02:01;;;;;;;18.80;10.37;;;;;;;;;;6254217;28;20076;-57
2023/09/07 17:05:02;;;;;;;17.50;10.53;;;;;;;;;;6253654;28;20049;-59
2023/09/07 17:08:04;;;;;;;15.07;10.15;;;;;;;;;;6249085;28;21639;-58
2023/09/07 17:11:06;;;;;;;21.38;11.10;;;;;;;;;;6252786;28;20059;-57
2023/09/07 17:14:08;;;;;;;18.33;11.35;;;;;;;;;;6252576;28;20049;-58
2023/09/07 17:17:08;;;;;;;19.58;10.75;;;;;;;;;;6252768;28;20469;-58
2023/09/07 17:20:09;;;;;;;17.90;11.53;;;;;;;;;;6249812;28;20409;-59
2023/09/07 17:23:10;;;;;;;25.63;13.80;;;;;;;;;;6252985;28;20037;-58
2023/09/07 17:26:10;;;;;;;26.70;16.07;;;;;;;;;;6253496;28;20053;-59
2023/09/07 17:29:11;;;;;;;30.37;15.40;;;;;;;;;;6249105;28;20480;-58
2023/09/07 17:32:12;;;;;;;22.97;14.70;;;;;;;;;;6253208;28;20132;-59
2023/09/07 17:35:12;;;;;;;25.50;17.40;;;;;;;;;;6251745;28;20483;-59
2023/09/07 17:38:13;;;;;;;28.23;19.23;;;;;;;;;;6248806;28;20464;-59
2023/09/07 17:41:13;;;;;;;29.53;20.40;;;;;;;;;;6252786;28;20052;-58
2023/09/07 17:44:14;;;;;;;38.13;25.43;;;;;;;;;;6252839;28;20041;-58
2023/09/07 17:47:14;;;;;;;39.80;25.80;;;;;;;;;;6257138;28;20195;-56